createdAt,value
2023-04-14T00:02:18.872Z,99.90
2023-04-14T00:05:05.584Z,99.90
2023-04-14T00:07:51.540Z,99.90
2023-04-14T00:10:37.373Z,99.90
2023-04-14T00:13:23.309Z,99.90
2023-04-14T00:16:11.665Z,99.90
2023-04-14T00:18:58.064Z,99.90
2023-04-14T00:21:44.359Z,99.90
2023-04-14T00:24:30.889Z,99.90
2023-04-14T00:27:16.714Z,99.90
2023-04-14T00:30:02.873Z,99.90
2023-04-14T00:32:49.213Z,99.90
2023-04-14T00:35:36.235Z,99.90
2023-04-14T00:38:22.111Z,99.90
2023-04-14T00:41:08.723Z,99.90
2023-04-14T00:43:55.744Z,99.90
2023-04-14T00:46:42.547Z,99.90
2023-04-14T00:49:29.408Z,99.90
2023-04-14T00:52:15.942Z,99.90
2023-04-14T00:55:05.153Z,99.90
2023-04-14T00:57:51.553Z,99.90
2023-04-14T01:00:38.266Z,99.90
2023-04-14T01:03:24.976Z,99.90
2023-04-14T01:06:11.689Z,99.90
2023-04-14T01:08:58.301Z,99.90
2023-04-14T01:12:07.202Z,99.90
2023-04-14T01:15:08.785Z,99.90
2023-04-14T01:18:03.972Z,99.90
2023-04-14T01:20:55.246Z,99.90
2023-04-14T01:24:23.589Z,99.90
2023-04-14T01:27:34.114Z,99.90
2023-04-14T01:30:29.738Z,99.90
2023-04-14T01:33:20.808Z,99.90
2023-04-14T01:36:13.505Z,99.90
2023-04-14T01:39:04.610Z,99.90
2023-04-14T01:41:56.544Z,99.90
2023-04-14T01:44:44.193Z,99.90
2023-04-14T01:47:31.042Z,99.90
2023-04-14T01:50:19.542Z,99.90
2023-04-14T01:53:08.325Z,99.90
2023-04-14T01:55:56.075Z,99.90
2023-04-14T01:58:44.400Z,99.90
2023-04-14T02:01:34.442Z,99.90
2023-04-14T02:04:25.838Z,99.90
2023-04-14T02:07:13.425Z,99.90
2023-04-14T02:10:00.929Z,99.90
2023-04-14T02:12:48.394Z,99.90
2023-04-14T02:15:37.705Z,99.90
2023-04-14T02:18:23.782Z,99.90
2023-04-14T02:21:11.836Z,99.90
2023-04-14T02:23:58.039Z,99.90
2023-04-14T02:26:58.670Z,99.90
2023-04-14T02:29:52.454Z,99.90
2023-04-14T02:32:43.181Z,99.90
2023-04-14T02:35:32.054Z,99.90
2023-04-14T02:38:30.458Z,99.90
2023-04-14T02:41:25.204Z,99.90
2023-04-14T02:44:24.426Z,99.90
2023-04-14T02:47:13.376Z,99.90
2023-04-14T02:50:05.407Z,99.90
2023-04-14T02:52:55.334Z,99.90
2023-04-14T02:55:47.851Z,99.90
2023-04-14T02:58:34.833Z,99.90
2023-04-14T03:01:21.923Z,99.90
2023-04-14T03:04:11.177Z,99.90
2023-04-14T03:07:00.737Z,99.90
2023-04-14T03:09:51.718Z,99.90
2023-04-14T03:12:42.174Z,99.90
2023-04-14T03:15:31.716Z,99.90
2023-04-14T03:18:18.662Z,99.90
2023-04-14T03:21:06.221Z,99.90
2023-04-14T03:23:55.949Z,99.90
2023-04-14T03:26:44.329Z,99.90
2023-04-14T03:29:34.801Z,99.90
2023-04-14T03:32:25.763Z,99.90
2023-04-14T03:35:14.975Z,99.90
2023-04-14T03:38:02.478Z,99.90
2023-04-14T03:40:50.364Z,99.90
2023-04-14T03:43:41.158Z,99.90
2023-04-14T03:46:31.867Z,99.90
2023-04-14T03:49:21.156Z,99.90
2023-04-14T03:52:12.193Z,99.90
2023-04-14T03:55:03.435Z,99.90
2023-04-14T03:57:50.251Z,99.90
2023-04-14T04:00:37.543Z,99.90
2023-04-14T04:03:25.555Z,99.90
2023-04-14T04:06:12.809Z,99.90
2023-04-14T04:09:02.274Z,99.90
2023-04-14T04:11:51.075Z,99.90
2023-04-14T04:14:41.498Z,99.90
2023-04-14T04:17:32.730Z,99.90
2023-04-14T04:20:21.144Z,99.90
2023-04-14T04:23:09.741Z,99.90
2023-04-14T04:25:56.780Z,99.90
2023-04-14T04:29:00.545Z,99.90
2023-04-14T04:31:47.791Z,99.90
2023-04-14T04:34:35.295Z,99.90
2023-04-14T04:37:28.204Z,99.90
2023-04-14T04:40:15.496Z,99.90
2023-04-14T04:43:02.151Z,99.90
2023-04-14T04:46:10.908Z,99.90
2023-04-14T04:48:57.672Z,99.90
2023-04-14T04:51:45.402Z,99.90
2023-04-14T04:54:31.611Z,99.90
2023-04-14T04:57:17.610Z,99.90
2023-04-14T05:00:05.352Z,99.90
2023-04-14T05:02:51.817Z,99.90
2023-04-14T05:05:38.020Z,99.90
2023-04-14T05:08:24.565Z,99.90
2023-04-14T05:11:10.942Z,99.90
2023-04-14T05:13:57.082Z,99.90
2023-04-14T05:16:43.015Z,99.90
2023-04-14T05:19:28.949Z,99.90
2023-04-14T05:22:14.849Z,99.90
2023-04-14T05:25:01.325Z,99.90
2023-04-14T05:27:47.223Z,99.90
2023-04-14T05:30:33.110Z,99.90
2023-04-14T05:33:19.413Z,99.90
2023-04-14T05:36:06.035Z,99.90
2023-04-14T05:38:52.050Z,99.90
2023-04-14T05:41:38.122Z,99.90
2023-04-14T05:44:24.261Z,99.90
2023-04-14T05:47:10.416Z,99.90
2023-04-14T05:49:56.358Z,99.90
2023-04-14T05:52:42.358Z,99.90
2023-04-14T05:55:28.283Z,99.90
2023-04-14T05:58:14.893Z,99.90
2023-04-14T06:01:00.790Z,99.90
2023-04-14T06:03:47.737Z,99.90
2023-04-14T06:06:33.978Z,99.90
2023-04-14T06:09:19.964Z,99.90
2023-04-14T06:12:06.283Z,99.90
2023-04-14T06:14:52.453Z,99.90
2023-04-14T06:17:39.779Z,99.90
2023-04-14T06:20:26.178Z,99.90
2023-04-14T06:23:12.378Z,99.90
2023-04-14T06:25:58.623Z,99.90
2023-04-14T06:28:44.744Z,99.90
2023-04-14T06:31:30.812Z,99.90
2023-04-14T06:34:16.657Z,99.90
2023-04-14T06:37:02.758Z,99.90
2023-04-14T06:39:48.887Z,99.90
2023-04-14T06:42:34.940Z,99.90
2023-04-14T06:45:21.426Z,99.90
2023-04-14T06:48:07.963Z,99.90
2023-04-14T06:50:55.860Z,99.90
2023-04-14T06:53:41.803Z,99.90
2023-04-14T06:56:27.736Z,99.90
2023-04-14T06:59:13.749Z,99.90
2023-04-14T07:01:59.884Z,99.90
2023-04-14T07:04:46.062Z,99.90
2023-04-14T07:07:40.524Z,99.90
2023-04-14T07:10:27.294Z,99.90
2023-04-14T07:13:13.496Z,99.90
2023-04-14T07:16:00.854Z,99.90
2023-04-14T07:18:47.337Z,99.90
2023-04-14T07:21:33.239Z,99.90
2023-04-14T07:24:19.546Z,99.90
2023-04-14T07:27:07.340Z,99.90
2023-04-14T07:29:54.160Z,99.90
2023-04-14T07:32:41.395Z,99.90
2023-04-14T07:35:27.932Z,99.90
2023-04-14T07:38:13.857Z,99.90
2023-04-14T07:41:01.450Z,99.90
2023-04-14T07:43:47.575Z,99.90
2023-04-14T07:46:33.704Z,99.90
2023-04-14T07:49:20.129Z,99.90
2023-04-14T07:52:06.130Z,99.90
2023-04-14T07:54:52.067Z,99.90
2023-04-14T07:57:38.238Z,99.90
2023-04-14T08:00:24.633Z,99.90
2023-04-14T08:03:11.403Z,99.90
2023-04-14T08:05:58.164Z,99.90
2023-04-14T08:08:44.424Z,99.90
2023-04-14T08:11:31.172Z,99.90
2023-04-14T08:14:17.531Z,99.90
2023-04-14T08:17:03.492Z,99.90
2023-04-14T08:19:49.668Z,99.90
2023-04-14T08:22:36.727Z,99.90
2023-04-14T08:25:22.928Z,99.90
2023-04-14T08:28:08.957Z,99.90
2023-04-14T08:30:55.036Z,99.90
2023-04-14T08:33:41.368Z,99.90
2023-04-14T08:36:27.791Z,99.90
2023-04-14T08:39:14.581Z,99.90
2023-04-14T08:42:00.731Z,99.90
2023-04-14T08:44:47.427Z,99.90
2023-04-14T08:47:35.771Z,99.90
2023-04-14T08:50:25.100Z,99.90
2023-04-14T08:53:13.428Z,99.90
2023-04-14T08:56:04.429Z,99.90
2023-04-14T08:58:50.926Z,99.90
2023-04-14T09:01:38.485Z,99.90
2023-04-14T09:04:24.716Z,99.90
2023-04-14T09:07:12.242Z,99.90
2023-04-14T09:09:59.144Z,99.90
2023-04-14T09:12:45.528Z,99.90
2023-04-14T09:15:31.946Z,99.90
2023-04-14T09:18:18.198Z,99.90
2023-04-14T09:21:32.932Z,99.90
2023-04-14T09:24:12.133Z,99.90
2023-04-14T09:26:58.284Z,99.90
2023-04-14T09:29:44.911Z,99.90
2023-04-14T09:32:31.460Z,99.90
2023-04-14T09:35:17.424Z,99.90
2023-04-14T09:38:03.809Z,99.90
2023-04-14T09:40:50.138Z,99.90
2023-04-14T09:43:36.830Z,99.90
2023-04-14T09:46:22.965Z,99.90
2023-04-14T09:49:09.027Z,99.90
2023-04-14T09:52:00.567Z,99.90
2023-04-14T09:54:46.636Z,99.90
2023-04-14T09:57:32.581Z,99.90
2023-04-14T10:00:24.097Z,99.90
2023-04-14T10:03:11.451Z,99.90
2023-04-14T10:05:57.736Z,99.90
2023-04-14T10:08:46.918Z,99.90
2023-04-14T10:11:33.373Z,99.90
2023-04-14T10:14:19.504Z,99.90
2023-04-14T10:17:05.880Z,99.90
2023-04-14T10:19:52.657Z,99.90
2023-04-14T10:22:41.115Z,99.90
2023-04-14T10:25:28.128Z,99.90
2023-04-14T10:28:15.081Z,99.90
2023-04-14T10:31:02.816Z,98.90
2023-04-14T10:33:49.176Z,99.80
2023-04-14T10:36:36.908Z,98.40
2023-04-14T10:39:24.479Z,98.60
2023-04-14T10:42:10.898Z,99.80
2023-04-14T10:45:08.567Z,99.30
2023-04-14T10:47:56.309Z,99.90
2023-04-14T10:50:50.286Z,99.50
2023-04-14T10:53:38.941Z,99.90
2023-04-14T10:56:25.371Z,99.70
2023-04-14T10:59:13.379Z,99.70
2023-04-14T11:02:00.441Z,99.10
2023-04-14T11:05:13.229Z,97.30
2023-04-14T11:08:03.121Z,98.30
2023-04-14T11:10:51.231Z,98.10
2023-04-14T11:13:38.840Z,97.90
2023-04-14T11:16:28.971Z,97.00
2023-04-14T11:19:15.582Z,97.60
2023-04-14T11:22:02.226Z,97.20
2023-04-14T11:24:48.751Z,95.40
2023-04-14T11:27:35.736Z,94.30
2023-04-14T11:30:21.763Z,93.80
2023-04-14T11:33:07.800Z,94.80
2023-04-14T11:35:54.955Z,94.30
2023-04-14T11:38:42.452Z,93.90
2023-04-14T11:41:29.459Z,92.30
2023-04-14T11:44:19.375Z,92.10
2023-04-14T11:47:05.609Z,92.50
2023-04-14T11:49:52.089Z,93.40
2023-04-14T11:52:43.781Z,93.40
2023-04-14T11:55:30.800Z,93.70
2023-04-14T11:58:23.786Z,92.30
2023-04-14T12:01:11.535Z,90.70
2023-04-14T12:03:58.500Z,89.30
2023-04-14T12:06:44.823Z,86.60
2023-04-14T12:09:32.084Z,90.00
2023-04-14T12:12:18.933Z,86.10
2023-04-14T12:15:05.588Z,84.00
2023-04-14T12:17:54.285Z,85.60
2023-04-14T12:20:45.964Z,85.20
2023-04-14T12:23:36.313Z,85.10
2023-04-14T12:26:22.995Z,87.60
2023-04-14T12:29:09.969Z,85.40
2023-04-14T12:31:56.746Z,86.90
2023-04-14T12:35:03.530Z,90.10
2023-04-14T12:37:50.566Z,85.80
2023-04-14T12:40:38.744Z,80.20
2023-04-14T12:43:35.445Z,77.70
2023-04-14T12:46:28.228Z,82.60
2023-04-14T12:49:50.135Z,79.80
2023-04-14T12:52:40.704Z,83.70
2023-04-14T12:55:28.400Z,81.30
2023-04-14T12:58:14.486Z,82.30
2023-04-14T13:01:00.943Z,79.60
2023-04-14T13:03:51.843Z,83.00
2023-04-14T13:06:38.870Z,85.80
2023-04-14T13:09:24.966Z,88.40
2023-04-14T13:12:10.792Z,87.70
2023-04-14T13:14:57.068Z,90.00
2023-04-14T13:17:43.047Z,91.90
2023-04-14T13:20:30.852Z,92.50
2023-04-14T13:23:16.821Z,93.70
2023-04-14T13:26:03.085Z,93.40
2023-04-14T13:28:50.746Z,93.10
2023-04-14T13:31:36.691Z,91.50
2023-04-14T13:34:22.833Z,90.60
2023-04-14T13:37:09.101Z,90.00
2023-04-14T13:39:55.027Z,87.60
2023-04-14T13:42:41.289Z,87.60
2023-04-14T13:45:28.425Z,90.10
2023-04-14T13:48:14.819Z,90.90
2023-04-14T13:51:01.940Z,91.00
2023-04-14T13:53:48.484Z,90.00
2023-04-14T13:56:34.625Z,91.10
2023-04-14T13:59:22.870Z,89.60
2023-04-14T14:02:08.999Z,90.10
2023-04-14T14:04:55.317Z,88.60
2023-04-14T14:07:42.046Z,90.00
2023-04-14T14:10:27.971Z,90.10
2023-04-14T14:13:14.617Z,90.90
2023-04-14T14:16:01.655Z,89.90
2023-04-14T14:18:48.522Z,90.50
2023-04-14T14:21:34.760Z,89.40
2023-04-14T14:24:21.227Z,91.30
2023-04-14T14:27:07.201Z,90.70
2023-04-14T14:29:53.612Z,90.30
2023-04-14T14:32:39.703Z,86.00
2023-04-14T14:35:26.036Z,86.10
2023-04-14T14:38:12.021Z,84.20
2023-04-14T14:40:58.288Z,81.90
2023-04-14T14:43:44.319Z,82.60
2023-04-14T14:46:31.532Z,83.80
2023-04-14T14:49:17.739Z,82.10
2023-04-14T14:52:04.769Z,81.10
2023-04-14T14:54:50.985Z,85.20
2023-04-14T14:57:36.880Z,82.80
2023-04-14T15:00:22.819Z,81.90
2023-04-14T15:03:09.266Z,83.70
2023-04-14T15:05:55.565Z,82.00
2023-04-14T15:08:42.123Z,81.40
2023-04-14T15:11:29.457Z,81.60
2023-04-14T15:14:15.878Z,81.50
2023-04-14T15:17:03.002Z,82.40
2023-04-14T15:19:49.706Z,85.70
2023-04-14T15:22:36.481Z,86.10
2023-04-14T15:25:22.550Z,89.70
2023-04-14T15:28:08.751Z,90.20
2023-04-14T15:30:54.729Z,92.20
2023-04-14T15:33:41.547Z,94.20
2023-04-14T15:36:28.965Z,96.20
2023-04-14T15:39:14.999Z,97.40
2023-04-14T15:42:01.349Z,98.40
2023-04-14T15:44:50.615Z,99.90
2023-04-14T15:47:36.625Z,99.70
2023-04-14T15:50:22.474Z,99.90
2023-04-14T15:53:08.462Z,99.90
2023-04-14T15:55:54.932Z,99.90
2023-04-14T15:58:41.036Z,99.90
2023-04-14T16:01:27.350Z,99.90
2023-04-14T16:04:13.933Z,99.90
2023-04-14T16:06:59.948Z,99.90
2023-04-14T16:09:46.525Z,99.90
2023-04-14T16:12:35.171Z,99.90
2023-04-14T16:15:21.626Z,99.90
2023-04-14T16:18:07.741Z,99.90
2023-04-14T16:20:53.856Z,99.90
2023-04-14T16:23:39.881Z,99.90
2023-04-14T16:26:25.928Z,99.90
2023-04-14T16:29:12.497Z,99.90
2023-04-14T16:31:58.829Z,99.90
2023-04-14T16:34:44.857Z,99.90
2023-04-14T16:37:31.002Z,99.90
2023-04-14T16:40:17.446Z,99.90
2023-04-14T16:43:04.411Z,99.90
2023-04-14T16:45:51.434Z,99.90
2023-04-14T16:48:37.571Z,99.90
2023-04-14T16:51:25.691Z,99.90
2023-04-14T16:54:11.885Z,99.90
2023-04-14T16:56:57.774Z,99.90
2023-04-14T16:59:45.051Z,99.90
2023-04-14T17:02:31.766Z,99.90
2023-04-14T17:05:18.058Z,99.90
2023-04-14T17:08:04.471Z,99.90
2023-04-14T17:10:50.656Z,99.90
2023-04-14T17:13:36.752Z,99.90
2023-04-14T17:16:22.893Z,99.90
2023-04-14T17:19:09.287Z,99.90
2023-04-14T17:21:55.443Z,99.90
2023-04-14T17:24:41.330Z,99.90
2023-04-14T17:27:27.299Z,99.90
2023-04-14T17:30:13.501Z,99.90
2023-04-14T17:33:00.807Z,99.90
2023-04-14T17:35:47.038Z,99.90
2023-04-14T17:38:34.628Z,99.90
2023-04-14T17:41:21.193Z,99.90
2023-04-14T17:44:07.365Z,99.90
2023-04-14T17:46:53.886Z,99.90
2023-04-14T17:49:40.512Z,99.90
2023-04-14T17:52:35.939Z,99.90
2023-04-14T17:55:22.526Z,99.90
2023-04-14T17:58:10.447Z,99.90
2023-04-14T18:00:57.430Z,99.90
2023-04-14T18:03:43.808Z,99.90
2023-04-14T18:06:33.671Z,99.90
2023-04-14T18:09:20.080Z,99.90
2023-04-14T18:12:06.034Z,99.90
2023-04-14T18:14:53.232Z,99.90
2023-04-14T18:17:39.267Z,99.90
2023-04-14T18:20:26.371Z,99.90
2023-04-14T18:23:12.741Z,99.90
2023-04-14T18:28:49.475Z,99.90
2023-04-14T18:31:35.888Z,99.90
2023-04-14T18:34:22.348Z,99.90
2023-04-14T18:37:08.611Z,99.90
2023-04-14T18:39:55.146Z,99.90
2023-04-14T18:42:41.495Z,99.90
2023-04-14T18:45:27.641Z,99.90
2023-04-14T18:48:15.317Z,99.90
2023-04-14T18:51:04.294Z,99.90
2023-04-14T18:53:50.316Z,99.90
2023-04-14T18:56:36.806Z,99.90
2023-04-14T18:59:22.748Z,99.90
2023-04-14T19:02:13.065Z,99.90
2023-04-14T19:04:59.436Z,99.90
2023-04-14T19:07:45.937Z,99.90
2023-04-14T19:10:32.406Z,99.90
2023-04-14T19:13:18.738Z,99.90
2023-04-14T19:16:11.365Z,99.90
2023-04-14T19:18:58.565Z,99.90
2023-04-14T19:21:44.713Z,99.90
2023-04-14T19:24:31.674Z,99.90
2023-04-14T19:27:18.752Z,99.90
2023-04-14T19:30:05.921Z,99.90
2023-04-14T19:32:53.415Z,99.90
2023-04-14T19:35:39.431Z,99.90
2023-04-14T19:38:25.307Z,99.90
2023-04-14T19:41:11.246Z,99.90
2023-04-14T19:43:57.164Z,99.90
2023-04-14T19:46:43.425Z,99.90
2023-04-14T19:49:30.893Z,99.90
2023-04-14T19:52:17.636Z,99.90
2023-04-14T19:55:05.467Z,99.90
2023-04-14T19:57:51.651Z,99.90
2023-04-14T20:00:40.872Z,99.90
2023-04-14T20:03:28.273Z,99.90
2023-04-14T20:06:14.371Z,99.90
2023-04-14T20:09:02.031Z,99.90
2023-04-14T20:11:48.271Z,99.90
2023-04-14T20:14:34.603Z,99.90
2023-04-14T20:17:23.213Z,99.90
2023-04-14T20:20:09.456Z,99.90
2023-04-14T20:22:57.000Z,99.90
2023-04-14T20:25:44.830Z,99.90
2023-04-14T20:28:31.779Z,99.90
2023-04-14T20:31:18.337Z,99.90
2023-04-14T20:34:07.034Z,99.90
2023-04-14T20:36:53.719Z,99.90
2023-04-14T20:39:39.530Z,99.90
2023-04-14T20:42:25.696Z,99.90
2023-04-14T20:45:11.737Z,99.90
2023-04-14T20:47:59.404Z,99.90
2023-04-14T20:50:49.474Z,99.90
2023-04-14T20:53:36.149Z,99.90
2023-04-14T20:56:22.601Z,99.90
2023-04-14T20:59:08.547Z,99.90
2023-04-14T21:01:54.994Z,99.90
2023-04-14T21:04:41.368Z,99.90
2023-04-14T21:07:28.175Z,99.90
2023-04-14T21:10:15.482Z,99.90
2023-04-14T21:15:26.347Z,99.90
2023-04-14T21:16:09.548Z,99.90
2023-04-14T21:18:55.841Z,99.90
2023-04-14T21:21:42.130Z,99.90
2023-04-14T21:24:28.619Z,99.90
2023-04-14T21:27:15.326Z,99.90
2023-04-14T21:30:01.776Z,99.90
2023-04-14T21:32:48.145Z,99.90
2023-04-14T21:35:34.564Z,99.90
2023-04-14T21:38:20.471Z,99.90
2023-04-14T21:41:07.978Z,99.90
2023-04-14T21:43:54.527Z,99.90
2023-04-14T21:46:40.691Z,99.90
2023-04-14T21:49:26.972Z,99.90
2023-04-14T21:52:12.909Z,99.90
2023-04-14T21:54:58.797Z,99.90
2023-04-14T21:57:49.183Z,99.90
2023-04-14T22:00:37.367Z,99.90
2023-04-14T22:03:23.763Z,99.90
2023-04-14T22:06:11.550Z,99.90
2023-04-14T22:08:57.821Z,99.90
2023-04-14T22:11:43.905Z,99.90
2023-04-14T22:14:31.035Z,99.90
2023-04-14T22:17:17.522Z,99.90
2023-04-14T22:20:06.080Z,99.90
2023-04-14T22:22:51.980Z,99.90
2023-04-14T22:25:38.811Z,99.90
2023-04-14T22:28:25.218Z,99.90
2023-04-14T22:31:12.163Z,99.90
2023-04-14T22:33:58.418Z,99.90
2023-04-14T22:36:44.471Z,99.90
2023-04-14T22:39:30.407Z,99.90
2023-04-14T22:42:16.655Z,99.90
2023-04-14T22:45:02.677Z,99.90
2023-04-14T22:47:48.661Z,99.90
2023-04-14T22:50:38.450Z,99.90
2023-04-14T22:53:24.652Z,99.90
2023-04-14T22:56:10.625Z,99.90
2023-04-14T22:58:58.032Z,99.90
2023-04-14T23:01:44.012Z,99.90
2023-04-14T23:04:31.369Z,99.90
2023-04-14T23:07:17.209Z,99.90
2023-04-14T23:10:03.838Z,99.90
2023-04-14T23:12:49.682Z,99.90
2023-04-14T23:15:36.229Z,99.90
2023-04-14T23:18:22.558Z,99.90
2023-04-14T23:21:08.478Z,99.90
2023-04-14T23:23:54.631Z,99.90
2023-04-14T23:26:41.237Z,99.90
2023-04-14T23:29:27.665Z,99.90
2023-04-14T23:32:14.247Z,99.90
2023-04-14T23:35:00.766Z,99.90
2023-04-14T23:37:47.018Z,99.90
2023-04-14T23:40:34.426Z,99.90
2023-04-14T23:43:21.879Z,99.90
2023-04-14T23:46:07.804Z,99.90
2023-04-14T23:48:54.179Z,99.90
2023-04-14T23:51:41.160Z,99.90
2023-04-14T23:54:27.713Z,99.90
2023-04-14T23:57:14.133Z,99.90
